sensor_id;sensor_type;location;lat;lon;timestamp;P1;durP1;ratioP1;P2;durP2;ratioP2
417;SDS011;49;48.530;9.200;2023-07-13T00:01:52;4.93;;;2.97;;
417;SDS011;49;48.530;9.200;2023-07-13T00:04:20;7.53;;;2.93;;
417;SDS011;49;48.530;9.200;2023-07-13T00:06:52;5.53;;;2.90;;
417;SDS011;49;48.530;9.200;2023-07-13T00:09:20;4.53;;;2.87;;
417;SDS011;49;48.530;9.200;2023-07-13T00:11:50;5.70;;;2.90;;
417;SDS011;49;48.530;9.200;2023-07-13T00:14:18;5.17;;;3.10;;
417;SDS011;49;48.530;9.200;2023-07-13T00:16:46;6.53;;;3.13;;
417;SDS011;49;48.530;9.200;2023-07-13T00:19:14;3.90;;;2.90;;
417;SDS011;49;48.530;9.200;2023-07-13T00:21:41;8.57;;;3.23;;
417;SDS011;49;48.530;9.200;2023-07-13T00:24:11;7.30;;;3.60;;
417;SDS011;49;48.530;9.200;2023-07-13T00:26:48;11.93;;;3.00;;
417;SDS011;49;48.530;9.200;2023-07-13T00:29:16;11.80;;;3.00;;
417;SDS011;49;48.530;9.200;2023-07-13T00:31:43;11.83;;;3.33;;
417;SDS011;49;48.530;9.200;2023-07-13T00:34:11;8.50;;;3.30;;
417;SDS011;49;48.530;9.200;2023-07-13T00:36:38;4.70;;;3.20;;
417;SDS011;49;48.530;9.200;2023-07-13T00:39:05;6.00;;;3.83;;
417;SDS011;49;48.530;9.200;2023-07-13T00:41:34;5.27;;;2.90;;
417;SDS011;49;48.530;9.200;2023-07-13T00:44:02;5.37;;;3.50;;
417;SDS011;49;48.530;9.200;2023-07-13T00:46:29;3.83;;;2.70;;
417;SDS011;49;48.530;9.200;2023-07-13T00:48:58;8.13;;;3.40;;
417;SDS011;49;48.530;9.200;2023-07-13T00:51:30;6.17;;;3.50;;
417;SDS011;49;48.530;9.200;2023-07-13T00:54:03;8.80;;;3.20;;
417;SDS011;49;48.530;9.200;2023-07-13T00:56:34;6.17;;;3.40;;
417;SDS011;49;48.530;9.200;2023-07-13T00:59:03;5.77;;;3.03;;
417;SDS011;49;48.530;9.200;2023-07-13T01:01:32;8.07;;;3.80;;
417;SDS011;49;48.530;9.200;2023-07-13T01:04:02;6.67;;;3.20;;
417;SDS011;49;48.530;9.200;2023-07-13T01:06:29;8.93;;;3.13;;
417;SDS011;49;48.530;9.200;2023-07-13T01:08:56;4.13;;;3.07;;
417;SDS011;49;48.530;9.200;2023-07-13T01:11:25;10.33;;;3.67;;
417;SDS011;49;48.530;9.200;2023-07-13T01:13:55;3.90;;;2.97;;
417;SDS011;49;48.530;9.200;2023-07-13T01:16:23;9.93;;;3.03;;
417;SDS011;49;48.530;9.200;2023-07-13T01:18:52;14.73;;;2.97;;
417;SDS011;49;48.530;9.200;2023-07-13T01:21:20;10.33;;;3.00;;
417;SDS011;49;48.530;9.200;2023-07-13T01:23:47;4.10;;;2.80;;
417;SDS011;49;48.530;9.200;2023-07-13T01:26:14;3.93;;;3.07;;
417;SDS011;49;48.530;9.200;2023-07-13T01:28:41;7.20;;;3.10;;
417;SDS011;49;48.530;9.200;2023-07-13T01:31:08;5.97;;;3.23;;
417;SDS011;49;48.530;9.200;2023-07-13T01:33:35;6.57;;;3.40;;
417;SDS011;49;48.530;9.200;2023-07-13T01:36:03;7.30;;;3.30;;
417;SDS011;49;48.530;9.200;2023-07-13T01:38:32;4.70;;;3.17;;
417;SDS011;49;48.530;9.200;2023-07-13T01:40:59;11.00;;;3.00;;
417;SDS011;49;48.530;9.200;2023-07-13T01:43:26;4.77;;;3.00;;
417;SDS011;49;48.530;9.200;2023-07-13T01:45:54;7.40;;;3.07;;
417;SDS011;49;48.530;9.200;2023-07-13T01:48:20;6.83;;;2.70;;
417;SDS011;49;48.530;9.200;2023-07-13T01:50:47;5.60;;;3.03;;
417;SDS011;49;48.530;9.200;2023-07-13T01:53:15;8.23;;;3.27;;
417;SDS011;49;48.530;9.200;2023-07-13T01:55:43;4.03;;;2.83;;
417;SDS011;49;48.530;9.200;2023-07-13T01:58:10;5.77;;;3.00;;
417;SDS011;49;48.530;9.200;2023-07-13T02:00:37;10.30;;;3.40;;
417;SDS011;49;48.530;9.200;2023-07-13T02:03:03;9.00;;;2.77;;
417;SDS011;49;48.530;9.200;2023-07-13T02:05:30;7.70;;;2.90;;
417;SDS011;49;48.530;9.200;2023-07-13T02:07:57;5.37;;;3.00;;
417;SDS011;49;48.530;9.200;2023-07-13T02:10:24;6.23;;;2.67;;
417;SDS011;49;48.530;9.200;2023-07-13T02:12:52;6.10;;;3.10;;
417;SDS011;49;48.530;9.200;2023-07-13T02:15:19;11.80;;;3.60;;
417;SDS011;49;48.530;9.200;2023-07-13T02:17:46;7.37;;;3.20;;
417;SDS011;49;48.530;9.200;2023-07-13T02:20:13;9.70;;;3.00;;
417;SDS011;49;48.530;9.200;2023-07-13T02:22:40;6.47;;;2.67;;
417;SDS011;49;48.530;9.200;2023-07-13T02:25:07;5.70;;;3.33;;
417;SDS011;49;48.530;9.200;2023-07-13T02:27:34;6.00;;;3.50;;
417;SDS011;49;48.530;9.200;2023-07-13T02:30:02;8.70;;;3.10;;
417;SDS011;49;48.530;9.200;2023-07-13T02:32:29;3.83;;;2.40;;
417;SDS011;49;48.530;9.200;2023-07-13T02:34:57;4.73;;;2.80;;
417;SDS011;49;48.530;9.200;2023-07-13T02:37:23;14.53;;;3.43;;
417;SDS011;49;48.530;9.200;2023-07-13T02:39:50;4.40;;;2.50;;
417;SDS011;49;48.530;9.200;2023-07-13T02:42:17;5.07;;;2.63;;
417;SDS011;49;48.530;9.200;2023-07-13T02:44:44;6.40;;;2.80;;
417;SDS011;49;48.530;9.200;2023-07-13T02:47:12;4.97;;;3.00;;
417;SDS011;49;48.530;9.200;2023-07-13T02:49:39;4.97;;;3.20;;
417;SDS011;49;48.530;9.200;2023-07-13T02:52:06;6.97;;;3.17;;
417;SDS011;49;48.530;9.200;2023-07-13T02:54:33;7.07;;;2.73;;
417;SDS011;49;48.530;9.200;2023-07-13T02:57:00;9.20;;;3.50;;
417;SDS011;49;48.530;9.200;2023-07-13T02:59:27;3.97;;;2.87;;
417;SDS011;49;48.530;9.200;2023-07-13T03:01:54;13.03;;;3.47;;
417;SDS011;49;48.530;9.200;2023-07-13T03:04:22;4.60;;;3.00;;
417;SDS011;49;48.530;9.200;2023-07-13T03:06:49;8.40;;;3.43;;
417;SDS011;49;48.530;9.200;2023-07-13T03:09:16;8.23;;;3.20;;
417;SDS011;49;48.530;9.200;2023-07-13T03:11:43;7.60;;;2.93;;
417;SDS011;49;48.530;9.200;2023-07-13T03:14:10;7.23;;;2.97;;
417;SDS011;49;48.530;9.200;2023-07-13T03:16:37;4.70;;;2.90;;
417;SDS011;49;48.530;9.200;2023-07-13T03:19:03;7.70;;;3.70;;
417;SDS011;49;48.530;9.200;2023-07-13T03:21:32;5.07;;;2.90;;
417;SDS011;49;48.530;9.200;2023-07-13T03:23:58;11.40;;;3.20;;
417;SDS011;49;48.530;9.200;2023-07-13T03:26:25;6.17;;;3.03;;
417;SDS011;49;48.530;9.200;2023-07-13T03:28:52;10.33;;;3.37;;
417;SDS011;49;48.530;9.200;2023-07-13T03:31:20;5.00;;;2.70;;
417;SDS011;49;48.530;9.200;2023-07-13T03:33:48;10.00;;;3.17;;
417;SDS011;49;48.530;9.200;2023-07-13T03:36:16;8.47;;;3.20;;
417;SDS011;49;48.530;9.200;2023-07-13T03:38:46;5.93;;;3.07;;
417;SDS011;49;48.530;9.200;2023-07-13T03:41:14;7.00;;;3.50;;
417;SDS011;49;48.530;9.200;2023-07-13T03:43:41;5.07;;;3.00;;
417;SDS011;49;48.530;9.200;2023-07-13T03:46:08;7.27;;;3.90;;
417;SDS011;49;48.530;9.200;2023-07-13T03:48:36;3.63;;;2.70;;
417;SDS011;49;48.530;9.200;2023-07-13T03:51:04;6.80;;;3.40;;
417;SDS011;49;48.530;9.200;2023-07-13T03:53:31;4.80;;;2.63;;
417;SDS011;49;48.530;9.200;2023-07-13T03:56:00;5.53;;;3.10;;
417;SDS011;49;48.530;9.200;2023-07-13T03:58:28;7.90;;;3.30;;
417;SDS011;49;48.530;9.200;2023-07-13T04:00:57;7.73;;;2.90;;
417;SDS011;49;48.530;9.200;2023-07-13T04:03:24;22.53;;;4.40;;
417;SDS011;49;48.530;9.200;2023-07-13T04:05:53;7.03;;;3.13;;
417;SDS011;49;48.530;9.200;2023-07-13T04:08:24;5.13;;;2.60;;
417;SDS011;49;48.530;9.200;2023-07-13T04:10:51;11.97;;;3.50;;
417;SDS011;49;48.530;9.200;2023-07-13T04:13:21;5.33;;;3.00;;
417;SDS011;49;48.530;9.200;2023-07-13T04:15:48;7.50;;;3.30;;
417;SDS011;49;48.530;9.200;2023-07-13T04:18:15;3.13;;;2.63;;
417;SDS011;49;48.530;9.200;2023-07-13T04:20:42;5.23;;;3.10;;
417;SDS011;49;48.530;9.200;2023-07-13T04:23:09;7.30;;;3.70;;
417;SDS011;49;48.530;9.200;2023-07-13T04:25:35;4.47;;;2.80;;
417;SDS011;49;48.530;9.200;2023-07-13T04:28:03;16.57;;;3.60;;
417;SDS011;49;48.530;9.200;2023-07-13T04:30:32;6.40;;;3.30;;
417;SDS011;49;48.530;9.200;2023-07-13T04:32:59;11.10;;;3.00;;
417;SDS011;49;48.530;9.200;2023-07-13T04:35:26;8.37;;;3.33;;
417;SDS011;49;48.530;9.200;2023-07-13T04:37:52;6.63;;;3.37;;
417;SDS011;49;48.530;9.200;2023-07-13T04:40:19;9.97;;;3.20;;
417;SDS011;49;48.530;9.200;2023-07-13T04:42:46;11.83;;;3.30;;
417;SDS011;49;48.530;9.200;2023-07-13T04:45:14;6.77;;;3.77;;
417;SDS011;49;48.530;9.200;2023-07-13T04:47:43;9.80;;;3.23;;
417;SDS011;49;48.530;9.200;2023-07-13T04:50:12;8.37;;;3.30;;
417;SDS011;49;48.530;9.200;2023-07-13T04:52:40;9.30;;;3.37;;
417;SDS011;49;48.530;9.200;2023-07-13T04:55:08;6.63;;;3.27;;
417;SDS011;49;48.530;9.200;2023-07-13T04:57:34;4.43;;;3.00;;
417;SDS011;49;48.530;9.200;2023-07-13T05:00:02;5.13;;;3.03;;
417;SDS011;49;48.530;9.200;2023-07-13T05:02:32;8.53;;;3.83;;
417;SDS011;49;48.530;9.200;2023-07-13T05:05:01;6.23;;;3.27;;
417;SDS011;49;48.530;9.200;2023-07-13T05:07:28;11.20;;;3.40;;
417;SDS011;49;48.530;9.200;2023-07-13T05:09:57;13.33;;;2.90;;
417;SDS011;49;48.530;9.200;2023-07-13T05:12:24;6.40;;;3.20;;
417;SDS011;49;48.530;9.200;2023-07-13T05:14:51;10.63;;;3.93;;
417;SDS011;49;48.530;9.200;2023-07-13T05:17:18;4.77;;;2.97;;
417;SDS011;49;48.530;9.200;2023-07-13T05:19:45;11.83;;;3.37;;
417;SDS011;49;48.530;9.200;2023-07-13T05:22:13;10.50;;;3.73;;
417;SDS011;49;48.530;9.200;2023-07-13T05:24:40;5.50;;;2.80;;
417;SDS011;49;48.530;9.200;2023-07-13T05:27:07;6.50;;;2.67;;
417;SDS011;49;48.530;9.200;2023-07-13T05:29:34;20.03;;;3.30;;
417;SDS011;49;48.530;9.200;2023-07-13T05:32:01;4.07;;;2.60;;
417;SDS011;49;48.530;9.200;2023-07-13T05:34:28;7.20;;;3.07;;
417;SDS011;49;48.530;9.200;2023-07-13T05:36:55;8.20;;;2.97;;
417;SDS011;49;48.530;9.200;2023-07-13T05:39:23;12.90;;;2.50;;
417;SDS011;49;48.530;9.200;2023-07-13T05:41:51;14.60;;;2.80;;
417;SDS011;49;48.530;9.200;2023-07-13T05:44:18;14.63;;;3.20;;
417;SDS011;49;48.530;9.200;2023-07-13T05:46:45;5.27;;;2.87;;
417;SDS011;49;48.530;9.200;2023-07-13T05:49:12;5.70;;;2.80;;
417;SDS011;49;48.530;9.200;2023-07-13T05:51:39;6.53;;;2.87;;
417;SDS011;49;48.530;9.200;2023-07-13T05:54:05;5.13;;;3.20;;
417;SDS011;49;48.530;9.200;2023-07-13T05:56:34;18.63;;;3.60;;
417;SDS011;49;48.530;9.200;2023-07-13T05:59:00;14.43;;;2.70;;
417;SDS011;49;48.530;9.200;2023-07-13T06:01:29;7.37;;;3.30;;
417;SDS011;49;48.530;9.200;2023-07-13T06:03:57;9.30;;;3.40;;
417;SDS011;49;48.530;9.200;2023-07-13T06:06:24;8.20;;;3.10;;
417;SDS011;49;48.530;9.200;2023-07-13T06:08:51;7.70;;;3.57;;
417;SDS011;49;48.530;9.200;2023-07-13T06:11:18;12.37;;;3.20;;
417;SDS011;49;48.530;9.200;2023-07-13T06:13:48;3.97;;;2.87;;
417;SDS011;49;48.530;9.200;2023-07-13T06:16:15;9.80;;;3.10;;
417;SDS011;49;48.530;9.200;2023-07-13T06:18:43;8.93;;;3.00;;
417;SDS011;49;48.530;9.200;2023-07-13T06:21:11;12.67;;;3.07;;
417;SDS011;49;48.530;9.200;2023-07-13T06:23:40;10.10;;;3.20;;
417;SDS011;49;48.530;9.200;2023-07-13T06:26:08;6.20;;;3.13;;
417;SDS011;49;48.530;9.200;2023-07-13T06:28:36;7.30;;;2.77;;
417;SDS011;49;48.530;9.200;2023-07-13T06:31:06;10.37;;;2.50;;
417;SDS011;49;48.530;9.200;2023-07-13T06:33:34;8.10;;;2.67;;
417;SDS011;49;48.530;9.200;2023-07-13T06:36:02;6.60;;;2.50;;
417;SDS011;49;48.530;9.200;2023-07-13T06:38:30;6.63;;;2.73;;
417;SDS011;49;48.530;9.200;2023-07-13T06:40:57;3.40;;;2.23;;
417;SDS011;49;48.530;9.200;2023-07-13T06:43:24;6.77;;;2.80;;
417;SDS011;49;48.530;9.200;2023-07-13T06:45:51;4.73;;;2.50;;
417;SDS011;49;48.530;9.200;2023-07-13T06:48:22;6.37;;;2.43;;
417;SDS011;49;48.530;9.200;2023-07-13T06:50:49;5.43;;;2.63;;
417;SDS011;49;48.530;9.200;2023-07-13T06:53:18;6.60;;;2.40;;
417;SDS011;49;48.530;9.200;2023-07-13T06:55:46;7.30;;;2.40;;
417;SDS011;49;48.530;9.200;2023-07-13T06:58:14;9.17;;;2.40;;
417;SDS011;49;48.530;9.200;2023-07-13T07:00:42;10.60;;;2.07;;
417;SDS011;49;48.530;9.200;2023-07-13T07:03:09;5.70;;;2.63;;
417;SDS011;49;48.530;9.200;2023-07-13T07:05:37;6.37;;;2.10;;
417;SDS011;49;48.530;9.200;2023-07-13T07:08:04;11.20;;;2.63;;
417;SDS011;49;48.530;9.200;2023-07-13T07:10:31;10.10;;;2.50;;
417;SDS011;49;48.530;9.200;2023-07-13T07:12:58;14.63;;;2.30;;
417;SDS011;49;48.530;9.200;2023-07-13T07:15:25;5.10;;;2.37;;
417;SDS011;49;48.530;9.200;2023-07-13T07:17:52;8.47;;;2.60;;
417;SDS011;49;48.530;9.200;2023-07-13T07:20:19;6.83;;;2.63;;
417;SDS011;49;48.530;9.200;2023-07-13T07:22:47;7.10;;;2.10;;
417;SDS011;49;48.530;9.200;2023-07-13T07:25:14;7.07;;;2.50;;
417;SDS011;49;48.530;9.200;2023-07-13T07:27:42;6.57;;;2.10;;
417;SDS011;49;48.530;9.200;2023-07-13T07:30:09;7.10;;;2.13;;
417;SDS011;49;48.530;9.200;2023-07-13T07:32:36;6.50;;;2.00;;
417;SDS011;49;48.530;9.200;2023-07-13T07:35:03;16.63;;;2.47;;
417;SDS011;49;48.530;9.200;2023-07-13T07:37:31;6.57;;;2.40;;
417;SDS011;49;48.530;9.200;2023-07-13T07:39:59;5.97;;;2.10;;
417;SDS011;49;48.530;9.200;2023-07-13T07:42:26;11.20;;;2.40;;
417;SDS011;49;48.530;9.200;2023-07-13T07:44:52;5.17;;;2.43;;
417;SDS011;49;48.530;9.200;2023-07-13T07:47:19;4.23;;;2.00;;
417;SDS011;49;48.530;9.200;2023-07-13T07:49:48;7.20;;;2.30;;
417;SDS011;49;48.530;9.200;2023-07-13T07:52:15;4.40;;;2.17;;
417;SDS011;49;48.530;9.200;2023-07-13T07:54:41;9.63;;;2.50;;
417;SDS011;49;48.530;9.200;2023-07-13T07:57:10;12.20;;;2.67;;
417;SDS011;49;48.530;9.200;2023-07-13T07:59:37;9.43;;;2.50;;
417;SDS011;49;48.530;9.200;2023-07-13T08:02:04;8.23;;;2.60;;
417;SDS011;49;48.530;9.200;2023-07-13T08:04:31;4.00;;;2.13;;
417;SDS011;49;48.530;9.200;2023-07-13T08:06:58;4.50;;;2.30;;
417;SDS011;49;48.530;9.200;2023-07-13T08:09:27;7.57;;;2.70;;
417;SDS011;49;48.530;9.200;2023-07-13T08:11:54;5.57;;;2.60;;
417;SDS011;49;48.530;9.200;2023-07-13T08:14:22;5.73;;;2.40;;
417;SDS011;49;48.530;9.200;2023-07-13T08:16:49;6.33;;;2.13;;
417;SDS011;49;48.530;9.200;2023-07-13T08:19:16;4.03;;;2.20;;
417;SDS011;49;48.530;9.200;2023-07-13T08:21:43;7.70;;;2.57;;
417;SDS011;49;48.530;9.200;2023-07-13T08:24:10;9.63;;;2.50;;
417;SDS011;49;48.530;9.200;2023-07-13T08:26:36;8.03;;;2.27;;
417;SDS011;49;48.530;9.200;2023-07-13T08:29:03;8.20;;;2.60;;
417;SDS011;49;48.530;9.200;2023-07-13T08:31:31;4.33;;;2.30;;
417;SDS011;49;48.530;9.200;2023-07-13T08:33:58;6.20;;;2.53;;
417;SDS011;49;48.530;9.200;2023-07-13T08:36:25;6.10;;;2.30;;
417;SDS011;49;48.530;9.200;2023-07-13T08:38:52;5.70;;;2.70;;
417;SDS011;49;48.530;9.200;2023-07-13T08:41:19;8.33;;;2.50;;
417;SDS011;49;48.530;9.200;2023-07-13T08:43:47;5.83;;;2.10;;
417;SDS011;49;48.530;9.200;2023-07-13T08:46:17;10.60;;;2.47;;
417;SDS011;49;48.530;9.200;2023-07-13T08:48:49;4.93;;;2.53;;
417;SDS011;49;48.530;9.200;2023-07-13T08:51:24;13.60;;;2.47;;
417;SDS011;49;48.530;9.200;2023-07-13T08:53:57;8.77;;;2.67;;
417;SDS011;49;48.530;9.200;2023-07-13T08:56:27;16.40;;;2.83;;
417;SDS011;49;48.530;9.200;2023-07-13T08:58:56;5.50;;;2.37;;
417;SDS011;49;48.530;9.200;2023-07-13T09:01:28;9.10;;;2.53;;
417;SDS011;49;48.530;9.200;2023-07-13T09:04:02;4.67;;;2.10;;
417;SDS011;49;48.530;9.200;2023-07-13T09:06:34;4.47;;;2.37;;
417;SDS011;49;48.530;9.200;2023-07-13T09:09:10;4.50;;;2.10;;
417;SDS011;49;48.530;9.200;2023-07-13T09:11:47;4.50;;;2.00;;
417;SDS011;49;48.530;9.200;2023-07-13T09:14:26;6.47;;;2.20;;
417;SDS011;49;48.530;9.200;2023-07-13T09:17:02;6.77;;;2.37;;
417;SDS011;49;48.530;9.200;2023-07-13T09:19:32;8.17;;;2.63;;
417;SDS011;49;48.530;9.200;2023-07-13T09:22:01;7.47;;;3.10;;
417;SDS011;49;48.530;9.200;2023-07-13T09:24:34;5.77;;;2.50;;
417;SDS011;49;48.530;9.200;2023-07-13T09:27:03;5.40;;;2.80;;
417;SDS011;49;48.530;9.200;2023-07-13T09:29:42;13.83;;;3.13;;
417;SDS011;49;48.530;9.200;2023-07-13T09:32:15;11.20;;;2.30;;
417;SDS011;49;48.530;9.200;2023-07-13T09:34:51;6.70;;;2.53;;
417;SDS011;49;48.530;9.200;2023-07-13T09:37:19;6.97;;;2.20;;
417;SDS011;49;48.530;9.200;2023-07-13T09:39:48;7.17;;;2.60;;
417;SDS011;49;48.530;9.200;2023-07-13T09:42:18;11.53;;;2.43;;
417;SDS011;49;48.530;9.200;2023-07-13T09:44:53;7.20;;;2.30;;
417;SDS011;49;48.530;9.200;2023-07-13T09:47:22;9.00;;;2.23;;
417;SDS011;49;48.530;9.200;2023-07-13T09:49:57;9.77;;;2.50;;
417;SDS011;49;48.530;9.200;2023-07-13T09:52:25;5.70;;;2.27;;
417;SDS011;49;48.530;9.200;2023-07-13T09:54:53;7.03;;;2.13;;
417;SDS011;49;48.530;9.200;2023-07-13T09:57:25;6.40;;;2.50;;
417;SDS011;49;48.530;9.200;2023-07-13T09:59:54;9.80;;;2.23;;
417;SDS011;49;48.530;9.200;2023-07-13T10:02:25;9.63;;;2.70;;
417;SDS011;49;48.530;9.200;2023-07-13T10:04:57;3.97;;;2.23;;
417;SDS011;49;48.530;9.200;2023-07-13T10:07:26;7.87;;;2.20;;
417;SDS011;49;48.530;9.200;2023-07-13T10:09:53;10.37;;;2.37;;
417;SDS011;49;48.530;9.200;2023-07-13T10:12:20;8.70;;;2.00;;
417;SDS011;49;48.530;9.200;2023-07-13T10:14:49;10.13;;;2.67;;
417;SDS011;49;48.530;9.200;2023-07-13T10:17:18;10.03;;;3.07;;
417;SDS011;49;48.530;9.200;2023-07-13T10:19:52;10.30;;;2.13;;
417;SDS011;49;48.530;9.200;2023-07-13T10:22:22;12.00;;;2.80;;
417;SDS011;49;48.530;9.200;2023-07-13T10:24:53;3.60;;;2.43;;
417;SDS011;49;48.530;9.200;2023-07-13T10:27:23;4.70;;;2.43;;
417;SDS011;49;48.530;9.200;2023-07-13T10:29:59;5.40;;;2.30;;
417;SDS011;49;48.530;9.200;2023-07-13T10:32:33;6.27;;;2.13;;
417;SDS011;49;48.530;9.200;2023-07-13T10:35:00;13.50;;;3.50;;
417;SDS011;49;48.530;9.200;2023-07-13T10:37:39;7.43;;;2.60;;
417;SDS011;49;48.530;9.200;2023-07-13T10:40:12;7.20;;;2.07;;
417;SDS011;49;48.530;9.200;2023-07-13T10:42:42;5.80;;;2.50;;
417;SDS011;49;48.530;9.200;2023-07-13T10:45:13;11.53;;;2.50;;
417;SDS011;49;48.530;9.200;2023-07-13T10:47:42;11.03;;;2.50;;
417;SDS011;49;48.530;9.200;2023-07-13T10:50:12;6.93;;;2.53;;
417;SDS011;49;48.530;9.200;2023-07-13T10:52:47;6.30;;;2.70;;
417;SDS011;49;48.530;9.200;2023-07-13T10:55:34;3.93;;;2.40;;
417;SDS011;49;48.530;9.200;2023-07-13T10:58:03;6.57;;;2.53;;
417;SDS011;49;48.530;9.200;2023-07-13T11:00:43;5.37;;;2.30;;
417;SDS011;49;48.530;9.200;2023-07-13T11:03:14;5.07;;;2.10;;
417;SDS011;49;48.530;9.200;2023-07-13T11:05:43;7.60;;;2.33;;
417;SDS011;49;48.530;9.200;2023-07-13T11:08:18;7.03;;;2.40;;
417;SDS011;49;48.530;9.200;2023-07-13T11:10:51;6.13;;;2.27;;
417;SDS011;49;48.530;9.200;2023-07-13T11:16:11;8.70;;;2.60;;
417;SDS011;49;48.530;9.200;2023-07-13T11:18:39;4.40;;;2.57;;
417;SDS011;49;48.530;9.200;2023-07-13T11:21:17;5.97;;;2.27;;
417;SDS011;49;48.530;9.200;2023-07-13T11:23:51;7.80;;;2.53;;
417;SDS011;49;48.530;9.200;2023-07-13T11:26:38;4.20;;;2.47;;
417;SDS011;49;48.530;9.200;2023-07-13T11:29:08;10.23;;;2.33;;
417;SDS011;49;48.530;9.200;2023-07-13T11:31:36;5.60;;;2.40;;
417;SDS011;49;48.530;9.200;2023-07-13T11:34:06;5.53;;;2.00;;
417;SDS011;49;48.530;9.200;2023-07-13T11:36:39;7.70;;;2.30;;
417;SDS011;49;48.530;9.200;2023-07-13T11:39:16;6.80;;;2.20;;
417;SDS011;49;48.530;9.200;2023-07-13T11:41:48;4.00;;;2.10;;
417;SDS011;49;48.530;9.200;2023-07-13T11:44:18;11.73;;;2.90;;
417;SDS011;49;48.530;9.200;2023-07-13T11:46:46;3.60;;;2.00;;
417;SDS011;49;48.530;9.200;2023-07-13T11:49:17;3.53;;;2.03;;
417;SDS011;49;48.530;9.200;2023-07-13T11:51:47;8.40;;;2.73;;
417;SDS011;49;48.530;9.200;2023-07-13T11:54:22;3.80;;;2.63;;
417;SDS011;49;48.530;9.200;2023-07-13T11:56:52;6.40;;;2.20;;
417;SDS011;49;48.530;9.200;2023-07-13T11:59:20;9.07;;;2.47;;
417;SDS011;49;48.530;9.200;2023-07-13T12:01:49;6.27;;;2.40;;
417;SDS011;49;48.530;9.200;2023-07-13T12:04:20;6.10;;;3.10;;
417;SDS011;49;48.530;9.200;2023-07-13T12:06:54;7.50;;;3.57;;
417;SDS011;49;48.530;9.200;2023-07-13T12:09:25;8.60;;;3.00;;
417;SDS011;49;48.530;9.200;2023-07-13T12:11:53;14.97;;;2.50;;
417;SDS011;49;48.530;9.200;2023-07-13T12:14:22;10.70;;;2.40;;
417;SDS011;49;48.530;9.200;2023-07-13T12:16:51;8.57;;;2.30;;
417;SDS011;49;48.530;9.200;2023-07-13T12:19:20;4.83;;;2.37;;
417;SDS011;49;48.530;9.200;2023-07-13T12:21:48;8.27;;;2.30;;
417;SDS011;49;48.530;9.200;2023-07-13T12:24:17;5.00;;;2.13;;
417;SDS011;49;48.530;9.200;2023-07-13T12:26:51;6.70;;;2.20;;
417;SDS011;49;48.530;9.200;2023-07-13T12:29:21;5.70;;;2.37;;
417;SDS011;49;48.530;9.200;2023-07-13T12:31:48;11.20;;;2.20;;
417;SDS011;49;48.530;9.200;2023-07-13T12:34:18;9.83;;;2.40;;
417;SDS011;49;48.530;9.200;2023-07-13T12:36:47;5.90;;;2.40;;
417;SDS011;49;48.530;9.200;2023-07-13T12:39:18;3.27;;;2.10;;
417;SDS011;49;48.530;9.200;2023-07-13T12:41:47;4.57;;;1.93;;
417;SDS011;49;48.530;9.200;2023-07-13T12:44:16;5.70;;;2.53;;
417;SDS011;49;48.530;9.200;2023-07-13T12:46:56;2.63;;;2.03;;
417;SDS011;49;48.530;9.200;2023-07-13T12:49:29;7.33;;;2.50;;
417;SDS011;49;48.530;9.200;2023-07-13T12:52:00;7.67;;;2.17;;
417;SDS011;49;48.530;9.200;2023-07-13T12:54:29;4.70;;;2.17;;
417;SDS011;49;48.530;9.200;2023-07-13T12:56:56;19.73;;;2.53;;
417;SDS011;49;48.530;9.200;2023-07-13T12:59:30;5.80;;;2.20;;
417;SDS011;49;48.530;9.200;2023-07-13T13:02:01;7.90;;;2.03;;
417;SDS011;49;48.530;9.200;2023-07-13T13:04:38;3.70;;;2.03;;
417;SDS011;49;48.530;9.200;2023-07-13T13:07:08;6.70;;;2.20;;
417;SDS011;49;48.530;9.200;2023-07-13T13:09:36;6.13;;;2.10;;
417;SDS011;49;48.530;9.200;2023-07-13T13:12:03;2.87;;;2.03;;
417;SDS011;49;48.530;9.200;2023-07-13T13:14:32;4.00;;;2.30;;
417;SDS011;49;48.530;9.200;2023-07-13T13:17:00;14.87;;;2.20;;
417;SDS011;49;48.530;9.200;2023-07-13T13:19:28;3.97;;;2.33;;
417;SDS011;49;48.530;9.200;2023-07-13T13:21:56;4.00;;;2.10;;
417;SDS011;49;48.530;9.200;2023-07-13T13:24:26;5.80;;;2.50;;
417;SDS011;49;48.530;9.200;2023-07-13T13:26:53;6.50;;;2.20;;
417;SDS011;49;48.530;9.200;2023-07-13T13:29:22;8.80;;;2.40;;
417;SDS011;49;48.530;9.200;2023-07-13T13:31:51;5.07;;;2.20;;
417;SDS011;49;48.530;9.200;2023-07-13T13:34:19;14.23;;;2.50;;
417;SDS011;49;48.530;9.200;2023-07-13T13:36:48;3.47;;;2.20;;
417;SDS011;49;48.530;9.200;2023-07-13T13:39:20;5.10;;;2.40;;
417;SDS011;49;48.530;9.200;2023-07-13T13:41:48;4.80;;;2.13;;
417;SDS011;49;48.530;9.200;2023-07-13T13:44:17;8.00;;;2.30;;
417;SDS011;49;48.530;9.200;2023-07-13T13:46:45;2.93;;;2.10;;
417;SDS011;49;48.530;9.200;2023-07-13T13:49:16;3.53;;;2.13;;
417;SDS011;49;48.530;9.200;2023-07-13T13:51:46;3.93;;;2.10;;
417;SDS011;49;48.530;9.200;2023-07-13T13:54:13;4.40;;;2.57;;
417;SDS011;49;48.530;9.200;2023-07-13T13:56:41;5.87;;;2.47;;
417;SDS011;49;48.530;9.200;2023-07-13T13:59:09;5.33;;;2.13;;
417;SDS011;49;48.530;9.200;2023-07-13T14:01:36;5.70;;;2.10;;
417;SDS011;49;48.530;9.200;2023-07-13T14:04:04;6.30;;;2.10;;
417;SDS011;49;48.530;9.200;2023-07-13T14:06:33;5.50;;;2.40;;
417;SDS011;49;48.530;9.200;2023-07-13T14:09:00;4.87;;;2.40;;
417;SDS011;49;48.530;9.200;2023-07-13T14:11:27;13.20;;;2.53;;
417;SDS011;49;48.530;9.200;2023-07-13T14:13:56;7.50;;;2.20;;
417;SDS011;49;48.530;9.200;2023-07-13T14:16:25;4.93;;;2.60;;
417;SDS011;49;48.530;9.200;2023-07-13T14:18:55;21.90;;;2.50;;
417;SDS011;49;48.530;9.200;2023-07-13T14:21:25;5.30;;;2.50;;
417;SDS011;49;48.530;9.200;2023-07-13T14:23:54;6.27;;;2.40;;
417;SDS011;49;48.530;9.200;2023-07-13T14:26:22;4.07;;;2.57;;
417;SDS011;49;48.530;9.200;2023-07-13T14:28:50;6.07;;;2.37;;
417;SDS011;49;48.530;9.200;2023-07-13T14:31:20;7.37;;;2.40;;
417;SDS011;49;48.530;9.200;2023-07-13T14:33:48;6.60;;;2.30;;
417;SDS011;49;48.530;9.200;2023-07-13T14:36:20;4.73;;;2.20;;
417;SDS011;49;48.530;9.200;2023-07-13T14:38:51;4.03;;;2.37;;
417;SDS011;49;48.530;9.200;2023-07-13T14:41:20;6.10;;;2.30;;
417;SDS011;49;48.530;9.200;2023-07-13T14:43:47;4.00;;;2.33;;
417;SDS011;49;48.530;9.200;2023-07-13T14:46:18;5.47;;;2.27;;
417;SDS011;49;48.530;9.200;2023-07-13T14:48:54;5.20;;;2.17;;
417;SDS011;49;48.530;9.200;2023-07-13T14:51:27;7.73;;;2.27;;
417;SDS011;49;48.530;9.200;2023-07-13T14:53:54;5.30;;;2.10;;
417;SDS011;49;48.530;9.200;2023-07-13T14:56:22;8.83;;;2.40;;
417;SDS011;49;48.530;9.200;2023-07-13T14:58:51;8.97;;;2.50;;
417;SDS011;49;48.530;9.200;2023-07-13T15:01:18;11.13;;;2.40;;
417;SDS011;49;48.530;9.200;2023-07-13T15:03:48;5.10;;;2.57;;
417;SDS011;49;48.530;9.200;2023-07-13T15:06:16;7.67;;;2.80;;
417;SDS011;49;48.530;9.200;2023-07-13T15:08:44;4.57;;;2.30;;
417;SDS011;49;48.530;9.200;2023-07-13T15:11:11;6.50;;;1.93;;
417;SDS011;49;48.530;9.200;2023-07-13T15:13:40;5.10;;;2.23;;
417;SDS011;49;48.530;9.200;2023-07-13T15:16:11;4.50;;;2.10;;
417;SDS011;49;48.530;9.200;2023-07-13T15:18:43;5.40;;;2.30;;
417;SDS011;49;48.530;9.200;2023-07-13T15:21:11;4.63;;;2.57;;
417;SDS011;49;48.530;9.200;2023-07-13T15:23:42;5.43;;;1.93;;
417;SDS011;49;48.530;9.200;2023-07-13T15:26:11;4.40;;;2.50;;
417;SDS011;49;48.530;9.200;2023-07-13T15:28:40;4.40;;;2.20;;
417;SDS011;49;48.530;9.200;2023-07-13T15:31:15;8.80;;;2.57;;
417;SDS011;49;48.530;9.200;2023-07-13T15:33:45;5.67;;;2.30;;
417;SDS011;49;48.530;9.200;2023-07-13T15:36:14;3.33;;;1.90;;
417;SDS011;49;48.530;9.200;2023-07-13T15:38:42;6.47;;;2.40;;
417;SDS011;49;48.530;9.200;2023-07-13T15:41:10;4.90;;;2.20;;
417;SDS011;49;48.530;9.200;2023-07-13T15:43:45;9.20;;;2.07;;
417;SDS011;49;48.530;9.200;2023-07-13T15:46:12;3.30;;;2.13;;
417;SDS011;49;48.530;9.200;2023-07-13T15:48:40;4.63;;;2.53;;
417;SDS011;49;48.530;9.200;2023-07-13T15:51:09;2.83;;;1.83;;
417;SDS011;49;48.530;9.200;2023-07-13T15:53:40;10.13;;;3.23;;
417;SDS011;49;48.530;9.200;2023-07-13T15:56:14;5.20;;;2.50;;
417;SDS011;49;48.530;9.200;2023-07-13T15:58:46;4.63;;;2.10;;
417;SDS011;49;48.530;9.200;2023-07-13T16:01:13;6.37;;;2.27;;
417;SDS011;49;48.530;9.200;2023-07-13T16:03:40;3.50;;;2.10;;
417;SDS011;49;48.530;9.200;2023-07-13T16:06:12;6.20;;;2.20;;
417;SDS011;49;48.530;9.200;2023-07-13T16:08:41;10.90;;;2.60;;
417;SDS011;49;48.530;9.200;2023-07-13T16:11:12;12.80;;;2.80;;